sensor_id;sensor_type;location;lat;lon;timestamp;P1;durP1;ratioP1;P2;durP2;ratioP2
59970;SDS011;45825;45.434;9.116;2022-07-29T00:01:45;4.18;;;1.48;;
59970;SDS011;45825;45.434;9.116;2022-07-29T00:04:11;3.40;;;1.45;;
59970;SDS011;45825;45.434;9.116;2022-07-29T00:06:36;3.00;;;1.40;;
59970;SDS011;45825;45.434;9.116;2022-07-29T00:09:01;2.20;;;1.20;;
59970;SDS011;45825;45.434;9.116;2022-07-29T00:11:27;4.38;;;1.52;;
59970;SDS011;45825;45.434;9.116;2022-07-29T00:13:52;2.72;;;1.25;;
59970;SDS011;45825;45.434;9.116;2022-07-29T00:16:18;3.47;;;1.27;;
59970;SDS011;45825;45.434;9.116;2022-07-29T00:18:43;6.57;;;1.60;;
59970;SDS011;45825;45.434;9.116;2022-07-29T00:21:08;2.50;;;1.30;;
59970;SDS011;45825;45.434;9.116;2022-07-29T00:23:33;2.95;;;1.20;;
59970;SDS011;45825;45.434;9.116;2022-07-29T00:25:59;3.15;;;1.40;;
59970;SDS011;45825;45.434;9.116;2022-07-29T00:28:24;4.18;;;1.50;;
59970;SDS011;45825;45.434;9.116;2022-07-29T00:30:49;3.05;;;1.50;;
59970;SDS011;45825;45.434;9.116;2022-07-29T00:33:15;2.72;;;1.50;;
59970;SDS011;45825;45.434;9.116;2022-07-29T00:35:40;2.78;;;1.40;;
59970;SDS011;45825;45.434;9.116;2022-07-29T00:38:08;4.85;;;1.30;;
59970;SDS011;45825;45.434;9.116;2022-07-29T00:40:33;2.67;;;1.50;;
59970;SDS011;45825;45.434;9.116;2022-07-29T00:42:59;3.38;;;1.55;;
59970;SDS011;45825;45.434;9.116;2022-07-29T00:45:24;3.42;;;1.52;;
59970;SDS011;45825;45.434;9.116;2022-07-29T00:47:49;2.72;;;1.40;;
59970;SDS011;45825;45.434;9.116;2022-07-29T00:50:15;2.88;;;1.42;;
59970;SDS011;45825;45.434;9.116;2022-07-29T00:52:41;4.97;;;1.50;;
59970;SDS011;45825;45.434;9.116;2022-07-29T00:55:11;3.28;;;1.30;;
59970;SDS011;45825;45.434;9.116;2022-07-29T00:57:37;4.93;;;1.55;;
59970;SDS011;45825;45.434;9.116;2022-07-29T01:00:04;4.38;;;1.60;;
59970;SDS011;45825;45.434;9.116;2022-07-29T01:02:31;2.88;;;1.40;;
59970;SDS011;45825;45.434;9.116;2022-07-29T01:04:57;4.43;;;1.60;;
59970;SDS011;45825;45.434;9.116;2022-07-29T01:07:24;2.60;;;1.38;;
59970;SDS011;45825;45.434;9.116;2022-07-29T01:09:51;3.30;;;1.67;;
59970;SDS011;45825;45.434;9.116;2022-07-29T01:12:19;3.28;;;1.50;;
59970;SDS011;45825;45.434;9.116;2022-07-29T01:14:47;4.25;;;1.58;;
59970;SDS011;45825;45.434;9.116;2022-07-29T01:17:17;3.78;;;1.80;;
59970;SDS011;45825;45.434;9.116;2022-07-29T01:20:02;3.70;;;1.45;;
59970;SDS011;45825;45.434;9.116;2022-07-29T01:25:44;5.10;;;1.85;;
59970;SDS011;45825;45.434;9.116;2022-07-29T01:31:27;4.30;;;1.77;;
59970;SDS011;45825;45.434;9.116;2022-07-29T01:33:58;4.00;;;1.80;;
59970;SDS011;45825;45.434;9.116;2022-07-29T01:38:58;3.33;;;1.48;;
59970;SDS011;45825;45.434;9.116;2022-07-29T01:41:31;5.60;;;1.55;;
59970;SDS011;45825;45.434;9.116;2022-07-29T01:44:01;5.10;;;1.67;;
59970;SDS011;45825;45.434;9.116;2022-07-29T01:46:37;3.42;;;1.60;;
59970;SDS011;45825;45.434;9.116;2022-07-29T01:49:47;3.63;;;1.52;;
59970;SDS011;45825;45.434;9.116;2022-07-29T01:51:57;5.63;;;1.58;;
59970;SDS011;45825;45.434;9.116;2022-07-29T01:54:45;3.47;;;1.60;;
59970;SDS011;45825;45.434;9.116;2022-07-29T01:57:15;4.22;;;1.90;;
59970;SDS011;45825;45.434;9.116;2022-07-29T01:59:45;2.75;;;1.80;;
59970;SDS011;45825;45.434;9.116;2022-07-29T02:02:12;3.70;;;1.73;;
59970;SDS011;45825;45.434;9.116;2022-07-29T02:04:40;3.80;;;1.80;;
59970;SDS011;45825;45.434;9.116;2022-07-29T02:07:07;2.97;;;1.80;;
59970;SDS011;45825;45.434;9.116;2022-07-29T02:09:37;6.85;;;2.20;;
59970;SDS011;45825;45.434;9.116;2022-07-29T02:12:04;3.85;;;2.15;;
59970;SDS011;45825;45.434;9.116;2022-07-29T02:14:33;4.68;;;1.85;;
59970;SDS011;45825;45.434;9.116;2022-07-29T02:17:02;4.28;;;2.33;;
59970;SDS011;45825;45.434;9.116;2022-07-29T02:19:27;5.43;;;2.33;;
59970;SDS011;45825;45.434;9.116;2022-07-29T02:21:56;3.05;;;1.88;;
59970;SDS011;45825;45.434;9.116;2022-07-29T02:26:58;5.10;;;3.05;;
59970;SDS011;45825;45.434;9.116;2022-07-29T02:29:26;4.65;;;2.20;;
59970;SDS011;45825;45.434;9.116;2022-07-29T02:31:54;5.70;;;2.47;;
59970;SDS011;45825;45.434;9.116;2022-07-29T02:34:23;4.93;;;2.50;;
59970;SDS011;45825;45.434;9.116;2022-07-29T02:36:49;4.82;;;2.33;;
59970;SDS011;45825;45.434;9.116;2022-07-29T02:39:17;4.88;;;2.40;;
59970;SDS011;45825;45.434;9.116;2022-07-29T02:41:44;3.28;;;2.00;;
59970;SDS011;45825;45.434;9.116;2022-07-29T02:44:13;4.32;;;2.30;;
59970;SDS011;45825;45.434;9.116;2022-07-29T02:46:52;3.33;;;1.98;;
59970;SDS011;45825;45.434;9.116;2022-07-29T02:51:49;2.77;;;1.50;;
59970;SDS011;45825;45.434;9.116;2022-07-29T02:54:24;3.97;;;1.73;;
59970;SDS011;45825;45.434;9.116;2022-07-29T02:56:56;4.38;;;1.75;;
59970;SDS011;45825;45.434;9.116;2022-07-29T02:59:28;3.03;;;1.70;;
59970;SDS011;45825;45.434;9.116;2022-07-29T03:01:58;3.83;;;1.83;;
59970;SDS011;45825;45.434;9.116;2022-07-29T03:04:25;2.78;;;1.33;;
59970;SDS011;45825;45.434;9.116;2022-07-29T03:06:53;3.35;;;1.50;;
59970;SDS011;45825;45.434;9.116;2022-07-29T03:09:20;2.75;;;1.58;;
59970;SDS011;45825;45.434;9.116;2022-07-29T03:11:48;3.33;;;1.83;;
59970;SDS011;45825;45.434;9.116;2022-07-29T03:14:14;4.82;;;1.85;;
59970;SDS011;45825;45.434;9.116;2022-07-29T03:16:41;2.72;;;1.40;;
59970;SDS011;45825;45.434;9.116;2022-07-29T03:19:07;2.53;;;1.73;;
59970;SDS011;45825;45.434;9.116;2022-07-29T03:21:33;3.67;;;1.50;;
59970;SDS011;45825;45.434;9.116;2022-07-29T03:23:58;2.95;;;1.63;;
59970;SDS011;45825;45.434;9.116;2022-07-29T03:26:24;3.42;;;1.67;;
59970;SDS011;45825;45.434;9.116;2022-07-29T03:28:50;4.45;;;1.83;;
59970;SDS011;45825;45.434;9.116;2022-07-29T03:31:15;2.95;;;1.60;;
59970;SDS011;45825;45.434;9.116;2022-07-29T03:33:40;3.50;;;1.92;;
59970;SDS011;45825;45.434;9.116;2022-07-29T03:36:05;5.82;;;1.67;;
59970;SDS011;45825;45.434;9.116;2022-07-29T03:38:31;4.68;;;1.70;;
59970;SDS011;45825;45.434;9.116;2022-07-29T03:41:01;3.13;;;1.65;;
59970;SDS011;45825;45.434;9.116;2022-07-29T03:43:30;3.63;;;1.70;;
59970;SDS011;45825;45.434;9.116;2022-07-29T03:45:59;3.55;;;1.60;;
59970;SDS011;45825;45.434;9.116;2022-07-29T03:48:26;3.65;;;1.80;;
59970;SDS011;45825;45.434;9.116;2022-07-29T03:50:55;3.83;;;1.85;;
59970;SDS011;45825;45.434;9.116;2022-07-29T03:53:21;5.03;;;1.65;;
59970;SDS011;45825;45.434;9.116;2022-07-29T03:55:53;3.95;;;1.65;;
59970;SDS011;45825;45.434;9.116;2022-07-29T03:58:21;4.90;;;2.03;;
59970;SDS011;45825;45.434;9.116;2022-07-29T04:00:49;3.97;;;1.90;;
59970;SDS011;45825;45.434;9.116;2022-07-29T04:03:14;4.07;;;1.80;;
59970;SDS011;45825;45.434;9.116;2022-07-29T04:05:40;3.20;;;1.90;;
59970;SDS011;45825;45.434;9.116;2022-07-29T04:08:05;3.00;;;1.90;;
59970;SDS011;45825;45.434;9.116;2022-07-29T04:10:31;3.00;;;1.83;;
59970;SDS011;45825;45.434;9.116;2022-07-29T04:12:56;5.07;;;1.98;;
59970;SDS011;45825;45.434;9.116;2022-07-29T04:15:22;2.65;;;1.67;;
59970;SDS011;45825;45.434;9.116;2022-07-29T04:17:47;4.22;;;1.90;;
59970;SDS011;45825;45.434;9.116;2022-07-29T04:20:13;5.25;;;2.00;;
59970;SDS011;45825;45.434;9.116;2022-07-29T04:22:38;5.13;;;2.03;;
59970;SDS011;45825;45.434;9.116;2022-07-29T04:25:04;5.80;;;2.38;;
59970;SDS011;45825;45.434;9.116;2022-07-29T04:27:30;4.22;;;2.05;;
59970;SDS011;45825;45.434;9.116;2022-07-29T04:29:55;5.35;;;2.13;;
59970;SDS011;45825;45.434;9.116;2022-07-29T04:32:21;4.57;;;2.00;;
59970;SDS011;45825;45.434;9.116;2022-07-29T04:34:46;3.38;;;1.90;;
59970;SDS011;45825;45.434;9.116;2022-07-29T04:37:12;8.05;;;2.13;;
59970;SDS011;45825;45.434;9.116;2022-07-29T04:39:37;3.60;;;1.65;;
59970;SDS011;45825;45.434;9.116;2022-07-29T04:42:02;4.35;;;2.00;;
59970;SDS011;45825;45.434;9.116;2022-07-29T04:44:28;5.47;;;1.92;;
59970;SDS011;45825;45.434;9.116;2022-07-29T04:46:53;5.10;;;2.17;;
59970;SDS011;45825;45.434;9.116;2022-07-29T04:49:19;4.38;;;2.08;;
59970;SDS011;45825;45.434;9.116;2022-07-29T04:51:44;4.22;;;1.90;;
59970;SDS011;45825;45.434;9.116;2022-07-29T04:54:09;5.32;;;2.10;;
59970;SDS011;45825;45.434;9.116;2022-07-29T04:56:34;4.90;;;2.30;;
59970;SDS011;45825;45.434;9.116;2022-07-29T04:59:00;5.15;;;2.35;;
59970;SDS011;45825;45.434;9.116;2022-07-29T05:01:25;4.63;;;2.13;;
59970;SDS011;45825;45.434;9.116;2022-07-29T05:03:50;5.28;;;1.95;;
59970;SDS011;45825;45.434;9.116;2022-07-29T05:06:16;4.95;;;2.15;;
59970;SDS011;45825;45.434;9.116;2022-07-29T05:08:41;6.97;;;2.05;;
59970;SDS011;45825;45.434;9.116;2022-07-29T05:11:06;4.50;;;2.10;;
59970;SDS011;45825;45.434;9.116;2022-07-29T05:13:32;4.00;;;1.95;;
59970;SDS011;45825;45.434;9.116;2022-07-29T05:15:57;8.05;;;2.63;;
59970;SDS011;45825;45.434;9.116;2022-07-29T05:18:25;4.22;;;2.10;;
59970;SDS011;45825;45.434;9.116;2022-07-29T05:20:51;4.68;;;2.20;;
59970;SDS011;45825;45.434;9.116;2022-07-29T05:23:16;4.35;;;2.22;;
59970;SDS011;45825;45.434;9.116;2022-07-29T05:25:42;7.65;;;2.10;;
59970;SDS011;45825;45.434;9.116;2022-07-29T05:28:07;3.55;;;1.92;;
59970;SDS011;45825;45.434;9.116;2022-07-29T05:30:32;5.63;;;2.10;;
59970;SDS011;45825;45.434;9.116;2022-07-29T05:32:58;5.80;;;2.03;;
59970;SDS011;45825;45.434;9.116;2022-07-29T05:35:23;4.32;;;2.10;;
59970;SDS011;45825;45.434;9.116;2022-07-29T05:37:48;5.18;;;2.05;;
59970;SDS011;45825;45.434;9.116;2022-07-29T05:40:13;6.40;;;2.22;;
59970;SDS011;45825;45.434;9.116;2022-07-29T05:42:39;5.95;;;2.15;;
59970;SDS011;45825;45.434;9.116;2022-07-29T05:45:04;4.88;;;2.10;;
59970;SDS011;45825;45.434;9.116;2022-07-29T05:47:30;4.75;;;2.20;;
59970;SDS011;45825;45.434;9.116;2022-07-29T05:49:55;5.38;;;2.50;;
59970;SDS011;45825;45.434;9.116;2022-07-29T05:52:21;6.40;;;2.70;;
59970;SDS011;45825;45.434;9.116;2022-07-29T05:54:46;5.45;;;2.60;;
59970;SDS011;45825;45.434;9.116;2022-07-29T05:57:19;6.22;;;2.53;;
59970;SDS011;45825;45.434;9.116;2022-07-29T05:59:46;7.15;;;2.47;;
59970;SDS011;45825;45.434;9.116;2022-07-29T06:02:11;4.80;;;2.38;;
59970;SDS011;45825;45.434;9.116;2022-07-29T06:04:37;5.15;;;2.38;;
59970;SDS011;45825;45.434;9.116;2022-07-29T06:07:02;4.82;;;2.20;;
59970;SDS011;45825;45.434;9.116;2022-07-29T06:09:28;7.72;;;2.10;;
59970;SDS011;45825;45.434;9.116;2022-07-29T06:11:53;5.85;;;2.00;;
59970;SDS011;45825;45.434;9.116;2022-07-29T06:14:19;7.40;;;2.15;;
59970;SDS011;45825;45.434;9.116;2022-07-29T06:16:44;6.43;;;2.35;;
59970;SDS011;45825;45.434;9.116;2022-07-29T06:19:10;6.97;;;1.85;;
59970;SDS011;45825;45.434;9.116;2022-07-29T06:21:35;6.70;;;1.80;;
59970;SDS011;45825;45.434;9.116;2022-07-29T06:24:00;6.13;;;1.95;;
59970;SDS011;45825;45.434;9.116;2022-07-29T06:26:26;2.65;;;1.60;;
59970;SDS011;45825;45.434;9.116;2022-07-29T06:28:52;6.43;;;1.77;;
59970;SDS011;45825;45.434;9.116;2022-07-29T06:31:17;4.97;;;1.90;;
59970;SDS011;45825;45.434;9.116;2022-07-29T06:33:42;3.30;;;1.73;;
59970;SDS011;45825;45.434;9.116;2022-07-29T06:36:08;3.33;;;1.60;;
59970;SDS011;45825;45.434;9.116;2022-07-29T06:38:33;6.72;;;1.40;;
59970;SDS011;45825;45.434;9.116;2022-07-29T06:40:59;4.72;;;1.85;;
59970;SDS011;45825;45.434;9.116;2022-07-29T06:43:32;3.85;;;1.80;;
59970;SDS011;45825;45.434;9.116;2022-07-29T06:46:00;4.47;;;2.00;;
59970;SDS011;45825;45.434;9.116;2022-07-29T06:48:27;4.38;;;1.88;;
59970;SDS011;45825;45.434;9.116;2022-07-29T06:50:53;5.60;;;1.88;;
59970;SDS011;45825;45.434;9.116;2022-07-29T06:53:19;3.33;;;1.88;;
59970;SDS011;45825;45.434;9.116;2022-07-29T06:55:44;8.55;;;2.20;;
59970;SDS011;45825;45.434;9.116;2022-07-29T06:58:09;9.88;;;2.30;;
59970;SDS011;45825;45.434;9.116;2022-07-29T07:00:35;5.60;;;2.03;;
59970;SDS011;45825;45.434;9.116;2022-07-29T07:03:01;4.32;;;1.90;;
59970;SDS011;45825;45.434;9.116;2022-07-29T07:05:26;8.07;;;2.10;;
59970;SDS011;45825;45.434;9.116;2022-07-29T07:07:52;6.38;;;1.90;;
59970;SDS011;45825;45.434;9.116;2022-07-29T07:10:17;5.82;;;1.98;;
59970;SDS011;45825;45.434;9.116;2022-07-29T07:12:42;5.50;;;1.90;;
59970;SDS011;45825;45.434;9.116;2022-07-29T07:15:08;5.07;;;2.08;;
59970;SDS011;45825;45.434;9.116;2022-07-29T07:17:33;5.88;;;1.70;;
59970;SDS011;45825;45.434;9.116;2022-07-29T07:19:59;6.70;;;2.00;;
59970;SDS011;45825;45.434;9.116;2022-07-29T07:22:24;5.95;;;1.90;;
59970;SDS011;45825;45.434;9.116;2022-07-29T07:24:49;3.88;;;2.22;;
59970;SDS011;45825;45.434;9.116;2022-07-29T07:27:15;6.22;;;2.15;;
59970;SDS011;45825;45.434;9.116;2022-07-29T07:29:40;4.95;;;2.30;;
59970;SDS011;45825;45.434;9.116;2022-07-29T07:32:06;3.78;;;1.92;;
59970;SDS011;45825;45.434;9.116;2022-07-29T07:34:32;5.50;;;1.90;;
59970;SDS011;45825;45.434;9.116;2022-07-29T07:36:57;4.55;;;2.00;;
59970;SDS011;45825;45.434;9.116;2022-07-29T07:39:22;6.78;;;2.25;;
59970;SDS011;45825;45.434;9.116;2022-07-29T07:41:48;6.85;;;2.60;;
59970;SDS011;45825;45.434;9.116;2022-07-29T07:44:13;5.95;;;2.55;;
59970;SDS011;45825;45.434;9.116;2022-07-29T07:46:38;6.65;;;2.28;;
59970;SDS011;45825;45.434;9.116;2022-07-29T07:49:03;5.38;;;2.17;;
59970;SDS011;45825;45.434;9.116;2022-07-29T07:51:29;4.55;;;2.30;;
59970;SDS011;45825;45.434;9.116;2022-07-29T07:53:54;3.58;;;2.00;;
59970;SDS011;45825;45.434;9.116;2022-07-29T07:56:19;4.63;;;2.10;;
59970;SDS011;45825;45.434;9.116;2022-07-29T07:58:45;3.90;;;1.90;;
59970;SDS011;45825;45.434;9.116;2022-07-29T08:01:10;5.90;;;2.42;;
59970;SDS011;45825;45.434;9.116;2022-07-29T08:03:35;9.68;;;2.90;;
59970;SDS011;45825;45.434;9.116;2022-07-29T08:06:01;3.97;;;1.98;;
59970;SDS011;45825;45.434;9.116;2022-07-29T08:08:28;4.80;;;1.95;;
59970;SDS011;45825;45.434;9.116;2022-07-29T08:10:53;7.72;;;2.50;;
59970;SDS011;45825;45.434;9.116;2022-07-29T08:13:22;4.60;;;2.10;;
59970;SDS011;45825;45.434;9.116;2022-07-29T08:15:50;3.67;;;1.73;;
59970;SDS011;45825;45.434;9.116;2022-07-29T08:18:22;5.95;;;2.40;;
59970;SDS011;45825;45.434;9.116;2022-07-29T08:20:49;4.22;;;2.20;;
59970;SDS011;45825;45.434;9.116;2022-07-29T08:23:14;5.07;;;1.83;;
59970;SDS011;45825;45.434;9.116;2022-07-29T08:25:40;7.32;;;2.00;;
59970;SDS011;45825;45.434;9.116;2022-07-29T08:28:06;5.90;;;2.15;;
59970;SDS011;45825;45.434;9.116;2022-07-29T08:30:31;4.05;;;1.80;;
59970;SDS011;45825;45.434;9.116;2022-07-29T08:32:57;3.22;;;1.73;;
59970;SDS011;45825;45.434;9.116;2022-07-29T08:35:23;5.07;;;2.42;;
59970;SDS011;45825;45.434;9.116;2022-07-29T08:37:48;5.40;;;2.22;;
59970;SDS011;45825;45.434;9.116;2022-07-29T08:40:14;5.18;;;2.00;;
59970;SDS011;45825;45.434;9.116;2022-07-29T08:42:39;4.15;;;1.80;;
59970;SDS011;45825;45.434;9.116;2022-07-29T08:45:05;3.63;;;1.85;;
59970;SDS011;45825;45.434;9.116;2022-07-29T08:47:31;4.65;;;1.90;;
59970;SDS011;45825;45.434;9.116;2022-07-29T08:49:58;3.25;;;1.80;;
59970;SDS011;45825;45.434;9.116;2022-07-29T08:52:25;4.75;;;2.20;;
59970;SDS011;45825;45.434;9.116;2022-07-29T08:54:51;4.15;;;1.83;;
59970;SDS011;45825;45.434;9.116;2022-07-29T08:57:17;4.85;;;2.20;;
59970;SDS011;45825;45.434;9.116;2022-07-29T08:59:44;6.13;;;2.60;;
59970;SDS011;45825;45.434;9.116;2022-07-29T09:02:12;7.00;;;2.30;;
59970;SDS011;45825;45.434;9.116;2022-07-29T09:04:45;5.45;;;2.20;;
59970;SDS011;45825;45.434;9.116;2022-07-29T09:07:14;6.80;;;2.15;;
59970;SDS011;45825;45.434;9.116;2022-07-29T09:09:40;4.95;;;2.30;;
59970;SDS011;45825;45.434;9.116;2022-07-29T09:12:08;5.30;;;2.40;;
59970;SDS011;45825;45.434;9.116;2022-07-29T09:14:36;5.05;;;2.40;;
59970;SDS011;45825;45.434;9.116;2022-07-29T09:17:02;4.75;;;2.30;;
59970;SDS011;45825;45.434;9.116;2022-07-29T09:19:32;7.10;;;2.60;;
59970;SDS011;45825;45.434;9.116;2022-07-29T09:22:00;7.32;;;2.65;;
59970;SDS011;45825;45.434;9.116;2022-07-29T09:24:37;7.03;;;2.30;;
59970;SDS011;45825;45.434;9.116;2022-07-29T09:27:04;4.90;;;2.65;;
59970;SDS011;45825;45.434;9.116;2022-07-29T09:29:34;4.65;;;2.50;;
59970;SDS011;45825;45.434;9.116;2022-07-29T09:32:00;5.65;;;2.47;;
59970;SDS011;45825;45.434;9.116;2022-07-29T09:34:28;4.03;;;2.30;;
59970;SDS011;45825;45.434;9.116;2022-07-29T09:36:56;5.18;;;2.55;;
59970;SDS011;45825;45.434;9.116;2022-07-29T09:39:35;5.90;;;2.50;;
59970;SDS011;45825;45.434;9.116;2022-07-29T09:42:09;5.05;;;2.58;;
59970;SDS011;45825;45.434;9.116;2022-07-29T09:45:08;6.57;;;2.60;;
59970;SDS011;45825;45.434;9.116;2022-07-29T09:47:47;7.90;;;2.58;;
59970;SDS011;45825;45.434;9.116;2022-07-29T09:50:14;6.18;;;2.20;;
59970;SDS011;45825;45.434;9.116;2022-07-29T09:52:50;5.43;;;2.30;;
59970;SDS011;45825;45.434;9.116;2022-07-29T09:55:16;5.07;;;2.28;;
59970;SDS011;45825;45.434;9.116;2022-07-29T09:57:43;4.35;;;2.17;;
59970;SDS011;45825;45.434;9.116;2022-07-29T10:00:10;5.45;;;2.55;;
59970;SDS011;45825;45.434;9.116;2022-07-29T10:02:38;4.20;;;2.45;;
59970;SDS011;45825;45.434;9.116;2022-07-29T10:05:09;6.25;;;3.10;;
59970;SDS011;45825;45.434;9.116;2022-07-29T10:07:52;5.05;;;2.78;;
59970;SDS011;45825;45.434;9.116;2022-07-29T10:12:58;4.38;;;2.40;;
59970;SDS011;45825;45.434;9.116;2022-07-29T10:15:29;5.97;;;2.60;;
59970;SDS011;45825;45.434;9.116;2022-07-29T10:17:57;4.50;;;2.72;;
59970;SDS011;45825;45.434;9.116;2022-07-29T10:20:24;7.07;;;2.47;;
59970;SDS011;45825;45.434;9.116;2022-07-29T10:22:51;6.25;;;2.90;;
59970;SDS011;45825;45.434;9.116;2022-07-29T10:25:18;5.88;;;2.83;;
59970;SDS011;45825;45.434;9.116;2022-07-29T10:27:45;4.85;;;2.80;;
59970;SDS011;45825;45.434;9.116;2022-07-29T10:30:11;4.90;;;2.70;;
59970;SDS011;45825;45.434;9.116;2022-07-29T10:43:59;5.20;;;2.75;;
59970;SDS011;45825;45.434;9.116;2022-07-29T10:46:27;5.43;;;2.40;;
59970;SDS011;45825;45.434;9.116;2022-07-29T10:59:41;6.78;;;3.30;;
59970;SDS011;45825;45.434;9.116;2022-07-29T11:05:07;8.18;;;3.20;;
59970;SDS011;45825;45.434;9.116;2022-07-29T11:07:34;4.82;;;2.58;;
59970;SDS011;45825;45.434;9.116;2022-07-29T11:23:01;8.65;;;3.38;;
59970;SDS011;45825;45.434;9.116;2022-07-29T11:25:26;6.78;;;3.22;;
59970;SDS011;45825;45.434;9.116;2022-07-29T11:27:52;5.47;;;2.78;;
59970;SDS011;45825;45.434;9.116;2022-07-29T11:33:31;5.15;;;2.42;;
59970;SDS011;45825;45.434;9.116;2022-07-29T11:36:11;5.68;;;2.63;;
59970;SDS011;45825;45.434;9.116;2022-07-29T11:38:37;6.95;;;3.50;;
59970;SDS011;45825;45.434;9.116;2022-07-29T11:41:21;5.53;;;3.25;;
59970;SDS011;45825;45.434;9.116;2022-07-29T11:43:54;5.32;;;3.22;;
59970;SDS011;45825;45.434;9.116;2022-07-29T11:49:07;5.57;;;3.10;;
59970;SDS011;45825;45.434;9.116;2022-07-29T11:51:34;7.68;;;3.70;;
59970;SDS011;45825;45.434;9.116;2022-07-29T11:54:01;6.68;;;3.95;;
59970;SDS011;45825;45.434;9.116;2022-07-29T11:56:27;6.43;;;3.53;;
59970;SDS011;45825;45.434;9.116;2022-07-29T11:59:07;7.50;;;3.30;;
59970;SDS011;45825;45.434;9.116;2022-07-29T12:01:51;8.85;;;3.00;;
59970;SDS011;45825;45.434;9.116;2022-07-29T12:04:17;5.97;;;3.75;;
59970;SDS011;45825;45.434;9.116;2022-07-29T12:06:42;6.57;;;4.38;;
59970;SDS011;45825;45.434;9.116;2022-07-29T12:09:07;6.38;;;3.47;;
59970;SDS011;45825;45.434;9.116;2022-07-29T12:11:33;6.80;;;3.70;;
59970;SDS011;45825;45.434;9.116;2022-07-29T12:13:59;10.27;;;4.00;;
59970;SDS011;45825;45.434;9.116;2022-07-29T12:16:34;5.85;;;3.80;;
59970;SDS011;45825;45.434;9.116;2022-07-29T12:19:00;9.13;;;3.40;;
59970;SDS011;45825;45.434;9.116;2022-07-29T12:21:50;5.60;;;3.13;;
59970;SDS011;45825;45.434;9.116;2022-07-29T12:24:15;7.68;;;3.80;;
59970;SDS011;45825;45.434;9.116;2022-07-29T12:26:57;9.52;;;3.90;;
59970;SDS011;45825;45.434;9.116;2022-07-29T12:29:24;6.00;;;3.60;;
59970;SDS011;45825;45.434;9.116;2022-07-29T12:31:52;6.35;;;3.63;;
59970;SDS011;45825;45.434;9.116;2022-07-29T12:34:22;5.22;;;3.55;;
59970;SDS011;45825;45.434;9.116;2022-07-29T12:36:49;7.93;;;3.70;;
59970;SDS011;45825;45.434;9.116;2022-07-29T12:39:18;6.00;;;3.60;;
59970;SDS011;45825;45.434;9.116;2022-07-29T12:41:44;11.23;;;3.50;;
59970;SDS011;45825;45.434;9.116;2022-07-29T12:44:09;5.93;;;3.97;;
59970;SDS011;45825;45.434;9.116;2022-07-29T12:46:35;7.65;;;3.80;;
59970;SDS011;45825;45.434;9.116;2022-07-29T12:49:01;7.32;;;4.40;;
59970;SDS011;45825;45.434;9.116;2022-07-29T12:51:34;9.23;;;4.47;;
59970;SDS011;45825;45.434;9.116;2022-07-29T12:54:05;6.80;;;4.00;;
59970;SDS011;45825;45.434;9.116;2022-07-29T12:56:39;7.88;;;4.28;;
59970;SDS011;45825;45.434;9.116;2022-07-29T13:01:41;7.47;;;3.95;;
59970;SDS011;45825;45.434;9.116;2022-07-29T13:04:06;9.27;;;4.43;;
59970;SDS011;45825;45.434;9.116;2022-07-29T13:06:44;7.82;;;4.30;;
59970;SDS011;45825;45.434;9.116;2022-07-29T13:14:12;8.55;;;4.40;;
59970;SDS011;45825;45.434;9.116;2022-07-29T13:17:00;7.07;;;3.60;;
59970;SDS011;45825;45.434;9.116;2022-07-29T13:19:38;7.55;;;3.70;;
59970;SDS011;45825;45.434;9.116;2022-07-29T13:22:05;4.97;;;3.33;;
59970;SDS011;45825;45.434;9.116;2022-07-29T13:24:44;6.20;;;3.87;;
59970;SDS011;45825;45.434;9.116;2022-07-29T13:27:17;6.25;;;3.50;;
59970;SDS011;45825;45.434;9.116;2022-07-29T13:29:44;6.28;;;3.60;;
59970;SDS011;45825;45.434;9.116;2022-07-29T13:32:09;6.88;;;3.63;;
59970;SDS011;45825;45.434;9.116;2022-07-29T13:34:36;8.02;;;4.00;;
59970;SDS011;45825;45.434;9.116;2022-07-29T13:37:02;6.28;;;3.70;;
59970;SDS011;45825;45.434;9.116;2022-07-29T13:39:27;8.98;;;3.55;;
59970;SDS011;45825;45.434;9.116;2022-07-29T13:41:52;7.78;;;3.75;;
59970;SDS011;45825;45.434;9.116;2022-07-29T13:44:18;5.45;;;3.75;;
59970;SDS011;45825;45.434;9.116;2022-07-29T13:46:43;7.10;;;3.95;;
59970;SDS011;45825;45.434;9.116;2022-07-29T13:49:08;6.80;;;4.13;;
59970;SDS011;45825;45.434;9.116;2022-07-29T13:51:33;6.05;;;3.20;;
59970;SDS011;45825;45.434;9.116;2022-07-29T13:53:59;7.47;;;3.80;;
59970;SDS011;45825;45.434;9.116;2022-07-29T13:56:24;7.13;;;3.58;;
59970;SDS011;45825;45.434;9.116;2022-07-29T13:58:49;7.10;;;3.85;;
59970;SDS011;45825;45.434;9.116;2022-07-29T14:01:15;8.65;;;4.05;;
59970;SDS011;45825;45.434;9.116;2022-07-29T14:03:40;6.90;;;4.40;;
59970;SDS011;45825;45.434;9.116;2022-07-29T14:06:08;7.55;;;3.70;;
59970;SDS011;45825;45.434;9.116;2022-07-29T14:08:33;7.38;;;3.95;;
59970;SDS011;45825;45.434;9.116;2022-07-29T14:10:59;8.40;;;4.15;;
59970;SDS011;45825;45.434;9.116;2022-07-29T14:13:24;7.22;;;3.70;;
59970;SDS011;45825;45.434;9.116;2022-07-29T14:15:49;6.93;;;4.00;;
59970;SDS011;45825;45.434;9.116;2022-07-29T14:18:15;8.18;;;3.50;;
59970;SDS011;45825;45.434;9.116;2022-07-29T14:20:40;7.30;;;3.47;;
59970;SDS011;45825;45.434;9.116;2022-07-29T14:23:05;7.80;;;3.72;;
59970;SDS011;45825;45.434;9.116;2022-07-29T14:25:30;10.48;;;4.22;;
59970;SDS011;45825;45.434;9.116;2022-07-29T14:27:56;9.68;;;3.78;;
59970;SDS011;45825;45.434;9.116;2022-07-29T14:30:21;6.82;;;3.78;;
59970;SDS011;45825;45.434;9.116;2022-07-29T14:32:46;6.32;;;3.70;;
59970;SDS011;45825;45.434;9.116;2022-07-29T14:35:12;6.47;;;3.95;;
59970;SDS011;45825;45.434;9.116;2022-07-29T14:37:37;8.70;;;3.90;;
59970;SDS011;45825;45.434;9.116;2022-07-29T14:40:03;7.80;;;4.22;;
59970;SDS011;45825;45.434;9.116;2022-07-29T14:42:29;6.88;;;4.15;;
59970;SDS011;45825;45.434;9.116;2022-07-29T14:44:56;9.73;;;3.55;;
59970;SDS011;45825;45.434;9.116;2022-07-29T14:47:22;7.60;;;4.18;;
59970;SDS011;45825;45.434;9.116;2022-07-29T14:49:48;6.70;;;3.70;;
59970;SDS011;45825;45.434;9.116;2022-07-29T14:52:13;6.78;;;3.83;;
59970;SDS011;45825;45.434;9.116;2022-07-29T14:54:39;6.32;;;3.58;;
59970;SDS011;45825;45.434;9.116;2022-07-29T14:57:04;7.25;;;4.28;;
59970;SDS011;45825;45.434;9.116;2022-07-29T14:59:29;7.22;;;3.70;;
59970;SDS011;45825;45.434;9.116;2022-07-29T15:01:55;8.50;;;4.15;;
59970;SDS011;45825;45.434;9.116;2022-07-29T15:04:20;6.68;;;4.15;;
59970;SDS011;45825;45.434;9.116;2022-07-29T15:06:45;13.95;;;3.97;;
59970;SDS011;45825;45.434;9.116;2022-07-29T15:09:11;11.15;;;4.60;;
59970;SDS011;45825;45.434;9.116;2022-07-29T15:11:36;18.27;;;6.07;;
59970;SDS011;45825;45.434;9.116;2022-07-29T15:14:02;13.45;;;6.30;;
59970;SDS011;45825;45.434;9.116;2022-07-29T15:16:27;12.45;;;6.97;;
59970;SDS011;45825;45.434;9.116;2022-07-29T15:18:53;12.88;;;7.32;;
59970;SDS011;45825;45.434;9.116;2022-07-29T15:21:18;15.02;;;7.78;;
59970;SDS011;45825;45.434;9.116;2022-07-29T15:23:43;12.85;;;7.72;;
59970;SDS011;45825;45.434;9.116;2022-07-29T15:26:09;16.05;;;8.40;;
59970;SDS011;45825;45.434;9.116;2022-07-29T15:28:34;13.75;;;7.78;;
59970;SDS011;45825;45.434;9.116;2022-07-29T15:30:59;13.85;;;7.38;;
59970;SDS011;45825;45.434;9.116;2022-07-29T15:33:25;12.13;;;7.47;;
59970;SDS011;45825;45.434;9.116;2022-07-29T15:35:50;13.38;;;8.15;;
59970;SDS011;45825;45.434;9.116;2022-07-29T15:38:16;16.65;;;9.88;;
59970;SDS011;45825;45.434;9.116;2022-07-29T15:40:41;16.58;;;10.57;;
59970;SDS011;45825;45.434;9.116;2022-07-29T15:43:08;12.40;;;8.50;;
59970;SDS011;45825;45.434;9.116;2022-07-29T15:45:37;11.55;;;6.93;;
59970;SDS011;45825;45.434;9.116;2022-07-29T15:48:07;13.00;;;8.30;;
59970;SDS011;45825;45.434;9.116;2022-07-29T15:50:33;12.05;;;7.90;;
59970;SDS011;45825;45.434;9.116;2022-07-29T15:52:59;14.68;;;9.98;;
59970;SDS011;45825;45.434;9.116;2022-07-29T15:55:25;18.05;;;11.82;;